Time;durP1;ratioP1;P1;durP2;ratioP2;P2;SDS_P1;SDS_P2;PMS_P1;PMS_P2;Temp;Humidity;BMP_temperature;BMP_pressure;BME280_temperature;BME280_humidity;BME280_pressure;Samples;Min_cycle;Max_cycle;Signal;HPM_P1;HPM_P2
2023/01/30 00:00:51;;;;;;;;;;;4.70;99.90;;;;;;5064310;28;20338;-68
2023/01/30 00:03:18;;;;;;;;;;;4.70;99.90;;;;;;5065270;28;19928;-68
2023/01/30 00:05:45;;;;;;;;;;;4.70;99.90;;;;;;5071787;28;19928;-68
2023/01/30 00:08:12;;;;;;;;;;;4.70;99.90;;;;;;5016599;28;19935;-68
2023/01/30 00:10:39;;;;;;;;;;;4.70;99.90;;;;;;5062557;28;20354;-68
2023/01/30 00:13:08;;;;;;;;;;;4.70;99.90;;;;;;5062065;28;20025;-68
2023/01/30 00:15:37;;;;;;;;;;;4.70;99.90;;;;;;5062558;28;19929;-67
2023/01/30 00:18:04;;;;;;;;;;;4.70;99.90;;;;;;5063707;28;20167;-67
2023/01/30 00:20:31;;;;;;;;;;;4.70;99.90;;;;;;5065786;28;19932;-66
2023/01/30 00:22:58;;;;;;;;;;;4.70;99.90;;;;;;5061672;28;20005;-66
2023/01/30 00:25:25;;;;;;;;;;;4.70;99.90;;;;;;5061850;28;19930;-66
2023/01/30 00:27:51;;;;;;;;;;;4.70;99.90;;;;;;5062119;28;19982;-66
2023/01/30 00:30:18;;;;;;;;;;;4.80;99.90;;;;;;5062519;28;20288;-66
2023/01/30 00:32:53;;;;;;;;;;;4.80;99.90;;;;;;5061467;28;20019;-66
2023/01/30 00:35:20;;;;;;;;;;;4.80;99.90;;;;;;5061856;28;20443;-66
2023/01/30 00:37:46;;;;;;;;;;;4.80;99.90;;;;;;5067223;28;20015;-66
2023/01/30 00:40:13;;;;;;;;;;;4.90;99.90;;;;;;5064323;28;19928;-66
2023/01/30 00:48:10;;;;;;;;;;;4.90;99.90;;;;;;5062011;28;19940;-67
2023/01/30 00:50:42;;;;;;;;;;;4.90;99.90;;;;;;5064109;28;19932;-66
2023/01/30 00:53:09;;;;;;;;;;;5.00;99.90;;;;;;5066572;28;19933;-66
2023/01/30 00:55:36;;;;;;;;;;;5.00;99.90;;;;;;5066999;28;19925;-66
2023/01/30 00:58:03;;;;;;;;;;;5.00;99.90;;;;;;5064056;28;19925;-66
2023/01/30 01:00:30;;;;;;;;;;;5.10;99.90;;;;;;5063303;28;20037;-66
2023/01/30 01:02:57;;;;;;;;;;;5.10;99.90;;;;;;5061406;28;19928;-66
2023/01/30 01:05:25;;;;;;;;;;;5.10;99.90;;;;;;5063437;28;19928;-66
2023/01/30 01:07:52;;;;;;;;;;;5.10;99.90;;;;;;5061854;28;20025;-66
2023/01/30 01:10:19;;;;;;;;;;;5.20;99.90;;;;;;5065413;28;20305;-66
2023/01/30 01:12:45;;;;;;;;;;;5.20;99.90;;;;;;5060050;28;19979;-67
2023/01/30 01:15:13;;;;;;;;;;;5.20;99.90;;;;;;5062353;28;19924;-66
2023/01/30 01:17:40;;;;;;;;;;;5.20;99.90;;;;;;5058715;28;19928;-66
2023/01/30 01:20:08;;;;;;;;;;;5.40;99.90;;;;;;5063374;28;19932;-66
2023/01/30 01:22:37;;;;;;;;;;;5.30;99.90;;;;;;5068219;28;19928;-67
2023/01/30 01:25:04;;;;;;;;;;;5.30;99.90;;;;;;5064087;28;19970;-66
2023/01/30 01:27:30;;;;;;;;;;;5.30;99.90;;;;;;5060758;28;20652;-66
2023/01/30 01:29:57;;;;;;;;;;;5.30;99.90;;;;;;5061754;28;20029;-67
2023/01/30 01:32:24;;;;;;;;;;;5.30;99.90;;;;;;5060935;28;19932;-66
2023/01/30 01:34:50;;;;;;;;;;;5.30;99.90;;;;;;5061443;28;20015;-66
2023/01/30 01:37:17;;;;;;;;;;;5.40;99.90;;;;;;5061074;28;19944;-66
2023/01/30 01:42:35;;;;;;;;;;;5.40;99.90;;;;;;5062493;28;20382;-66
2023/01/30 01:45:10;;;;;;;;;;;5.40;99.90;;;;;;5069209;28;20352;-67
2023/01/30 01:47:40;;;;;;;;;;;5.40;99.90;;;;;;5066871;28;19974;-66
2023/01/30 01:50:12;;;;;;;;;;;5.40;99.90;;;;;;5061551;28;19964;-67
2023/01/30 01:52:39;;;;;;;;;;;5.40;99.90;;;;;;5059174;28;19924;-67
2023/01/30 01:55:07;;;;;;;;;;;5.40;99.90;;;;;;5061864;28;19924;-67
2023/01/30 01:57:37;;;;;;;;;;;5.40;99.90;;;;;;5061140;28;20013;-67
2023/01/30 02:00:06;;;;;;;;;;;5.50;99.90;;;;;;5059168;28;20400;-67
2023/01/30 02:02:33;;;;;;;;;;;5.50;99.90;;;;;;5060946;28;20018;-67
2023/01/30 02:05:05;;;;;;;;;;;5.50;99.90;;;;;;5062003;28;19924;-66
2023/01/30 02:07:34;;;;;;;;;;;5.50;99.90;;;;;;5062192;28;20450;-66
2023/01/30 02:10:01;;;;;;;;;;;5.50;99.90;;;;;;5061534;28;20003;-67
2023/01/30 02:12:29;;;;;;;;;;;5.50;99.90;;;;;;5063927;28;19928;-67
2023/01/30 02:14:58;;;;;;;;;;;5.50;99.90;;;;;;5062459;28;20364;-67
2023/01/30 02:17:25;;;;;;;;;;;5.60;99.90;;;;;;5060335;28;20062;-67
2023/01/30 02:19:54;;;;;;;;;;;5.70;99.90;;;;;;5059694;28;20019;-65
2023/01/30 02:22:43;;;;;;;;;;;5.70;99.90;;;;;;5060921;28;20468;-66
2023/01/30 02:25:36;;;;;;;;;;;5.70;99.90;;;;;;5061485;28;19924;-66
2023/01/30 02:28:23;;;;;;;;;;;5.70;99.90;;;;;;5060544;28;19933;-66
2023/01/30 02:31:00;;;;;;;;;;;5.60;99.90;;;;;;5062196;28;20800;-66
2023/01/30 02:33:33;;;;;;;;;;;5.60;99.90;;;;;;5059833;28;20023;-66
2023/01/30 02:36:08;;;;;;;;;;;5.60;99.90;;;;;;5060079;28;19932;-66
2023/01/30 02:38:38;;;;;;;;;;;5.60;99.90;;;;;;5060102;28;19986;-66
2023/01/30 02:41:11;;;;;;;;;;;5.60;99.90;;;;;;5056216;28;19971;-66
2023/01/30 02:43:42;;;;;;;;;;;5.60;99.90;;;;;;5059380;28;19947;-67
2023/01/30 02:46:12;;;;;;;;;;;5.70;99.90;;;;;;5060850;28;19994;-66
2023/01/30 02:48:40;;;;;;;;;;;5.70;99.90;;;;;;5061275;28;19929;-67
2023/01/30 02:51:09;;;;;;;;;;;5.70;99.90;;;;;;5060074;28;19925;-67
2023/01/30 02:53:36;;;;;;;;;;;5.70;99.90;;;;;;5063337;28;19924;-67
2023/01/30 02:56:04;;;;;;;;;;;5.70;99.90;;;;;;5063275;28;19924;-67
2023/01/30 02:58:32;;;;;;;;;;;5.80;99.90;;;;;;5059373;28;19932;-68
2023/01/30 03:01:17;;;;;;;;;;;5.80;99.90;;;;;;5058952;28;19932;-67
2023/01/30 03:03:52;;;;;;;;;;;5.80;99.90;;;;;;5066677;28;19947;-66
2023/01/30 03:06:32;;;;;;;;;;;5.90;99.90;;;;;;5062031;28;19971;-67
2023/01/30 03:09:06;;;;;;;;;;;5.90;99.90;;;;;;5063012;28;19960;-67
2023/01/30 03:11:36;;;;;;;;;;;5.90;99.90;;;;;;5060563;28;19928;-67
2023/01/30 03:14:08;;;;;;;;;;;5.90;99.90;;;;;;5060784;28;19931;-67
2023/01/30 03:16:36;;;;;;;;;;;6.00;99.90;;;;;;5060169;28;19929;-67
2023/01/30 03:19:05;;;;;;;;;;;6.00;99.90;;;;;;5061545;28;19932;-67
2023/01/30 03:21:32;;;;;;;;;;;6.00;99.90;;;;;;5067912;28;19925;-66
2023/01/30 03:23:59;;;;;;;;;;;6.00;99.90;;;;;;5064354;28;20014;-67
2023/01/30 03:26:29;;;;;;;;;;;6.00;99.90;;;;;;5060222;28;19932;-67
2023/01/30 03:28:57;;;;;;;;;;;6.00;99.90;;;;;;5059629;28;19928;-67
2023/01/30 03:31:23;;;;;;;;;;;6.00;99.90;;;;;;5064558;28;19937;-67
2023/01/30 03:33:50;;;;;;;;;;;6.00;99.90;;;;;;5066745;28;20043;-67
2023/01/30 03:36:19;;;;;;;;;;;6.10;99.90;;;;;;5066598;28;20001;-67
2023/01/30 03:38:45;;;;;;;;;;;6.10;99.90;;;;;;5066486;28;19924;-67
2023/01/30 03:41:12;;;;;;;;;;;6.10;99.90;;;;;;5067059;28;20287;-67
2023/01/30 03:43:39;;;;;;;;;;;6.10;99.90;;;;;;5067138;28;20006;-67
2023/01/30 03:46:06;;;;;;;;;;;6.10;99.90;;;;;;5066583;28;19928;-67
2023/01/30 03:48:33;;;;;;;;;;;6.10;99.90;;;;;;5065208;28;19925;-66
2023/01/30 03:50:59;;;;;;;;;;;6.10;99.90;;;;;;5071749;28;20054;-67
2023/01/30 03:53:27;;;;;;;;;;;6.10;99.90;;;;;;5072402;28;19924;-67
2023/01/30 03:55:54;;;;;;;;;;;6.10;99.90;;;;;;5070931;28;19924;-68
2023/01/30 03:58:22;;;;;;;;;;;6.10;99.90;;;;;;5073082;28;19930;-67
2023/01/30 04:00:49;;;;;;;;;;;6.10;99.90;;;;;;5072117;28;19968;-68
2023/01/30 04:03:16;;;;;;;;;;;6.10;99.90;;;;;;5068903;28;19924;-67
2023/01/30 04:05:43;;;;;;;;;;;6.10;99.90;;;;;;5070941;28;19931;-67
2023/01/30 04:08:09;;;;;;;;;;;6.10;99.90;;;;;;5068774;28;20301;-67
2023/01/30 04:10:37;;;;;;;;;;;6.10;99.90;;;;;;5067966;28;19924;-67
2023/01/30 04:13:05;;;;;;;;;;;6.10;99.90;;;;;;5070609;28;19928;-67
2023/01/30 04:15:31;;;;;;;;;;;6.10;99.90;;;;;;5069455;28;20284;-66
2023/01/30 04:17:58;;;;;;;;;;;6.10;99.90;;;;;;5067650;28;20361;-67
2023/01/30 04:20:25;;;;;;;;;;;6.10;99.90;;;;;;5069485;28;19924;-68
2023/01/30 04:22:52;;;;;;;;;;;6.10;99.90;;;;;;5069831;28;19925;-67
2023/01/30 04:25:19;;;;;;;;;;;6.20;99.90;;;;;;5067654;28;19979;-68
2023/01/30 04:27:47;;;;;;;;;;;6.20;99.90;;;;;;5067373;28;20009;-67
2023/01/30 04:30:13;;;;;;;;;;;6.20;99.90;;;;;;5071008;28;20295;-67
2023/01/30 04:32:40;;;;;;;;;;;6.20;99.90;;;;;;5066848;28;20376;-67
2023/01/30 04:35:07;;;;;;;;;;;6.20;99.90;;;;;;5065097;28;20387;-67
2023/01/30 04:37:34;;;;;;;;;;;6.30;99.90;;;;;;5069728;28;20018;-67
2023/01/30 04:40:03;;;;;;;;;;;6.30;99.90;;;;;;5070747;28;19935;-67
2023/01/30 04:42:30;;;;;;;;;;;6.30;99.90;;;;;;5067120;28;19940;-66
2023/01/30 04:44:58;;;;;;;;;;;6.30;99.90;;;;;;5069046;28;19924;-66
2023/01/30 04:47:24;;;;;;;;;;;6.30;99.90;;;;;;5066422;28;19964;-66
2023/01/30 04:49:57;;;;;;;;;;;6.40;99.90;;;;;;5071284;28;19932;-66
2023/01/30 04:52:24;;;;;;;;;;;6.40;99.90;;;;;;5068822;28;19924;-67
2023/01/30 04:54:51;;;;;;;;;;;6.40;99.90;;;;;;5071100;28;19985;-66
2023/01/30 04:57:17;;;;;;;;;;;6.40;99.90;;;;;;5067532;28;19924;-67
2023/01/30 04:59:44;;;;;;;;;;;6.40;99.90;;;;;;5069751;28;19928;-67
2023/01/30 05:02:13;;;;;;;;;;;6.40;99.90;;;;;;5068052;28;19924;-67
2023/01/30 05:04:39;;;;;;;;;;;6.50;99.90;;;;;;5069490;28;19928;-67
2023/01/30 05:07:06;;;;;;;;;;;6.50;99.90;;;;;;5067885;28;19925;-67
2023/01/30 05:09:33;;;;;;;;;;;6.50;99.90;;;;;;5068858;28;20299;-67
2023/01/30 05:12:00;;;;;;;;;;;6.50;99.90;;;;;;5066946;28;19924;-67
2023/01/30 05:14:27;;;;;;;;;;;6.50;99.90;;;;;;5067607;28;20015;-68
2023/01/30 05:16:53;;;;;;;;;;;6.50;99.90;;;;;;5067148;28;19932;-67
2023/01/30 05:19:22;;;;;;;;;;;6.60;99.90;;;;;;5070401;28;19925;-67
2023/01/30 05:21:48;;;;;;;;;;;6.60;99.90;;;;;;5066196;28;19947;-68
2023/01/30 05:24:15;;;;;;;;;;;6.60;99.90;;;;;;5069007;28;20005;-68
2023/01/30 05:26:42;;;;;;;;;;;6.60;99.90;;;;;;5062433;28;20027;-68
2023/01/30 05:29:10;;;;;;;;;;;6.70;99.90;;;;;;5069625;28;19955;-68
2023/01/30 05:31:37;;;;;;;;;;;6.70;99.90;;;;;;5063762;28;20427;-68
2023/01/30 05:34:04;;;;;;;;;;;6.70;99.90;;;;;;5068293;28;19982;-68
2023/01/30 05:36:32;;;;;;;;;;;6.70;99.90;;;;;;5065198;28;20441;-68
2023/01/30 05:38:59;;;;;;;;;;;6.70;99.90;;;;;;5069078;28;19934;-68
2023/01/30 05:41:26;;;;;;;;;;;6.70;99.90;;;;;;5063542;28;20319;-69
2023/01/30 05:43:53;;;;;;;;;;;6.70;99.90;;;;;;5069101;28;20338;-69
2023/01/30 05:46:19;;;;;;;;;;;6.70;99.90;;;;;;5066275;28;20035;-69
2023/01/30 05:48:46;;;;;;;;;;;6.70;99.90;;;;;;5070126;28;19960;-68
2023/01/30 05:51:17;;;;;;;;;;;6.70;99.90;;;;;;5068419;28;19924;-69
2023/01/30 05:53:45;;;;;;;;;;;6.70;99.90;;;;;;5070946;28;19924;-68
2023/01/30 05:56:12;;;;;;;;;;;6.70;99.90;;;;;;5067518;28;19925;-68
2023/01/30 05:58:39;;;;;;;;;;;6.70;99.90;;;;;;5070008;28;19932;-69
2023/01/30 06:01:08;;;;;;;;;;;6.70;99.90;;;;;;5068907;28;20615;-69
2023/01/30 06:03:35;;;;;;;;;;;6.70;99.90;;;;;;5066466;28;19935;-69
2023/01/30 06:06:01;;;;;;;;;;;6.70;99.90;;;;;;5066031;28;20351;-68
2023/01/30 06:08:28;;;;;;;;;;;6.80;99.90;;;;;;5068147;28;19925;-69
2023/01/30 06:10:59;;;;;;;;;;;6.80;99.90;;;;;;5066629;28;20306;-69
2023/01/30 06:13:25;;;;;;;;;;;6.80;99.90;;;;;;5054341;28;19938;-69
2023/01/30 06:15:52;;;;;;;;;;;6.90;99.90;;;;;;5055829;28;19928;-69
2023/01/30 06:18:19;;;;;;;;;;;6.90;99.90;;;;;;5052629;28;19931;-68
2023/01/30 06:20:47;;;;;;;;;;;6.90;99.90;;;;;;5065240;28;19924;-69
2023/01/30 06:23:13;;;;;;;;;;;6.90;99.90;;;;;;5068820;28;19982;-69
2023/01/30 06:25:42;;;;;;;;;;;6.90;99.90;;;;;;5068522;28;20366;-69
2023/01/30 06:28:10;;;;;;;;;;;7.00;99.90;;;;;;5066149;28;19932;-69
2023/01/30 06:30:37;;;;;;;;;;;7.00;99.90;;;;;;5085070;28;19928;-69
2023/01/30 06:33:04;;;;;;;;;;;7.00;99.90;;;;;;5068770;28;19967;-68
2023/01/30 06:35:30;;;;;;;;;;;7.00;99.90;;;;;;5077362;28;20020;-70
2023/01/30 06:37:57;;;;;;;;;;;7.00;99.90;;;;;;5081907;28;19924;-69
2023/01/30 06:40:24;;;;;;;;;;;7.00;99.90;;;;;;5070127;28;20015;-68
2023/01/30 06:42:50;;;;;;;;;;;7.00;99.90;;;;;;5069306;28;19971;-68
2023/01/30 06:45:19;;;;;;;;;;;7.00;99.90;;;;;;5065404;28;19931;-69
2023/01/30 06:47:46;;;;;;;;;;;7.10;99.90;;;;;;5067703;28;19936;-69
2023/01/30 06:50:12;;;;;;;;;;;7.10;99.90;;;;;;5068963;28;20371;-69
2023/01/30 06:52:40;;;;;;;;;;;7.00;99.90;;;;;;5065472;28;20320;-70
2023/01/30 06:55:08;;;;;;;;;;;7.00;99.90;;;;;;5063556;28;19925;-69
2023/01/30 06:57:34;;;;;;;;;;;6.90;99.90;;;;;;5067078;28;20020;-69
2023/01/30 07:00:01;;;;;;;;;;;7.00;99.90;;;;;;5067646;28;19964;-69
2023/01/30 07:02:33;;;;;;;;;;;7.00;99.90;;;;;;5064356;28;19930;-70
2023/01/30 07:05:00;;;;;;;;;;;7.00;99.90;;;;;;5064932;28;19950;-68
2023/01/30 07:07:28;;;;;;;;;;;7.00;99.90;;;;;;5068929;28;20015;-70
2023/01/30 07:09:56;;;;;;;;;;;7.00;99.90;;;;;;5058748;28;19972;-69
2023/01/30 07:12:23;;;;;;;;;;;7.10;99.90;;;;;;5064763;28;19924;-68
2023/01/30 07:14:50;;;;;;;;;;;7.10;99.90;;;;;;5072759;28;19928;-70
2023/01/30 07:17:16;;;;;;;;;;;7.10;99.90;;;;;;5065137;28;19924;-69
2023/01/30 07:19:44;;;;;;;;;;;7.20;99.90;;;;;;5069299;28;19928;-70
2023/01/30 07:22:11;;;;;;;;;;;7.10;99.90;;;;;;5066524;28;20389;-70
2023/01/30 07:24:38;;;;;;;;;;;7.10;99.90;;;;;;5074235;28;19924;-70
2023/01/30 07:27:06;;;;;;;;;;;7.00;99.90;;;;;;5067637;28;20486;-69
2023/01/30 07:29:34;;;;;;;;;;;7.00;99.90;;;;;;5074136;28;19960;-70
2023/01/30 07:32:00;;;;;;;;;;;7.00;99.90;;;;;;5074036;28;20267;-69
2023/01/30 07:34:27;;;;;;;;;;;6.90;99.90;;;;;;5073111;28;19924;-71
2023/01/30 07:36:55;;;;;;;;;;;6.90;99.90;;;;;;5072083;28;20027;-69
2023/01/30 07:39:22;;;;;;;;;;;6.90;99.90;;;;;;5070900;28;19924;-69
2023/01/30 07:41:49;;;;;;;;;;;6.90;99.90;;;;;;5080192;28;19924;-69
2023/01/30 07:44:16;;;;;;;;;;;7.00;99.90;;;;;;5073527;28;19928;-69
2023/01/30 07:46:42;;;;;;;;;;;7.00;99.90;;;;;;5070310;28;19975;-68
2023/01/30 07:49:10;;;;;;;;;;;7.00;99.90;;;;;;5072319;28;20016;-69
2023/01/30 07:51:36;;;;;;;;;;;7.10;99.90;;;;;;5069643;28;19971;-69
2023/01/30 07:54:04;;;;;;;;;;;7.10;99.90;;;;;;5068978;28;20355;-69
2023/01/30 07:56:31;;;;;;;;;;;7.20;99.90;;;;;;5068172;28;20030;-69
2023/01/30 07:58:58;;;;;;;;;;;7.20;99.90;;;;;;5071523;28;20007;-69
2023/01/30 08:01:24;;;;;;;;;;;7.30;99.90;;;;;;5074790;28;20002;-69
2023/01/30 08:03:51;;;;;;;;;;;7.30;99.90;;;;;;5070255;28;19978;-68
2023/01/30 08:06:18;;;;;;;;;;;7.20;99.90;;;;;;5078088;28;20520;-70
2023/01/30 08:08:45;;;;;;;;;;;7.20;99.90;;;;;;5070595;28;19932;-68
2023/01/30 08:11:13;;;;;;;;;;;7.20;99.90;;;;;;5069625;28;19932;-69
2023/01/30 08:13:39;;;;;;;;;;;7.20;99.90;;;;;;5084328;28;20133;-68
2023/01/30 08:16:07;;;;;;;;;;;7.10;99.90;;;;;;5080637;28;19924;-69
2023/01/30 08:18:34;;;;;;;;;;;7.00;99.90;;;;;;5070079;28;20024;-68
2023/01/30 08:21:01;;;;;;;;;;;7.00;99.90;;;;;;5067343;28;20099;-69
2023/01/30 08:23:28;;;;;;;;;;;7.00;99.90;;;;;;5070790;28;19924;-69
2023/01/30 08:25:54;;;;;;;;;;;6.90;99.90;;;;;;5072524;28;19925;-70
2023/01/30 08:28:23;;;;;;;;;;;6.90;99.90;;;;;;5084365;28;19924;-70
2023/01/30 08:30:51;;;;;;;;;;;6.90;99.90;;;;;;5077427;28;19924;-70
2023/01/30 08:33:18;;;;;;;;;;;7.00;99.90;;;;;;5069403;28;20380;-69
2023/01/30 08:35:44;;;;;;;;;;;7.00;99.90;;;;;;5071805;28;20019;-69
2023/01/30 08:38:11;;;;;;;;;;;7.90;99.90;;;;;;5070356;28;20011;-70
2023/01/30 08:40:38;;;;;;;;;;;8.70;99.90;;;;;;5076803;28;20367;-69
2023/01/30 08:43:05;;;;;;;;;;;9.40;99.90;;;;;;5069388;28;19934;-68
2023/01/30 08:45:33;;;;;;;;;;;10.20;99.90;;;;;;5071936;28;20023;-69
2023/01/30 08:48:00;;;;;;;;;;;10.30;99.90;;;;;;5071107;28;19928;-70
2023/01/30 08:50:27;;;;;;;;;;;10.80;99.90;;;;;;5072881;28;19979;-70
2023/01/30 08:52:54;;;;;;;;;;;11.10;99.90;;;;;;5070881;28;19924;-70
2023/01/30 08:55:21;;;;;;;;;;;11.10;99.90;;;;;;5072453;28;19924;-68
2023/01/30 08:57:48;;;;;;;;;;;11.30;99.90;;;;;;5068518;28;19952;-69
2023/01/30 09:00:15;;;;;;;;;;;11.10;99.90;;;;;;5072530;28;19928;-69
2023/01/30 09:02:43;;;;;;;;;;;11.40;99.90;;;;;;5067506;28;19924;-68
2023/01/30 09:05:10;;;;;;;;;;;11.80;99.70;;;;;;5072276;28;20387;-69
2023/01/30 09:07:37;;;;;;;;;;;11.70;98.10;;;;;;5070804;28;20016;-69
2023/01/30 09:10:04;;;;;;;;;;;11.80;98.10;;;;;;5072361;28;19929;-69
2023/01/30 09:12:31;;;;;;;;;;;11.70;97.70;;;;;;5069532;28;19929;-69
2023/01/30 09:14:59;;;;;;;;;;;12.20;97.20;;;;;;5070126;28;19931;-69
2023/01/30 09:17:26;;;;;;;;;;;11.80;96.40;;;;;;5068890;28;19928;-68
2023/01/30 09:19:54;;;;;;;;;;;11.80;96.90;;;;;;5072179;28;20027;-69
2023/01/30 09:22:20;;;;;;;;;;;12.20;96.30;;;;;;5069971;28;20026;-69
2023/01/30 09:24:47;;;;;;;;;;;12.10;95.70;;;;;;5072593;28;19972;-68
2023/01/30 09:27:14;;;;;;;;;;;11.50;94.80;;;;;;5074878;28;19959;-71
2023/01/30 09:29:40;;;;;;;;;;;11.40;95.10;;;;;;5071669;28;19931;-68
2023/01/30 09:32:07;;;;;;;;;;;11.70;96.00;;;;;;5070833;28;19924;-69
2023/01/30 09:34:34;;;;;;;;;;;11.90;94.90;;;;;;5072439;28;19924;-70
2023/01/30 09:37:03;;;;;;;;;;;11.60;94.00;;;;;;5070952;28;20388;-69
2023/01/30 09:39:29;;;;;;;;;;;11.60;94.40;;;;;;5070788;28;19925;-68
2023/01/30 09:42:08;;;;;;;;;;;11.30;94.10;;;;;;5068820;28;19924;-69
2023/01/30 09:44:47;;;;;;;;;;;10.00;96.80;;;;;;5072097;28;19974;-69
2023/01/30 09:47:15;;;;;;;;;;;9.10;99.90;;;;;;5069401;28;20375;-70
2023/01/30 09:49:47;;;;;;;;;;;8.60;99.90;;;;;;5072070;28;19979;-69
2023/01/30 09:52:19;;;;;;;;;;;8.20;99.90;;;;;;5068451;28;19932;-69
2023/01/30 09:54:46;;;;;;;;;;;8.00;99.90;;;;;;5071181;28;19924;-70
2023/01/30 09:57:16;;;;;;;;;;;7.90;99.90;;;;;;5068000;28;19946;-70
2023/01/30 09:59:47;;;;;;;;;;;8.00;99.90;;;;;;5069691;28;20293;-68
2023/01/30 10:02:27;;;;;;;;;;;8.00;99.90;;;;;;5067690;28;19999;-70
2023/01/30 10:04:55;;;;;;;;;;;8.00;99.90;;;;;;5068665;28;19924;-69
2023/01/30 10:07:28;;;;;;;;;;;8.00;99.90;;;;;;5069074;28;20387;-70
2023/01/30 10:09:59;;;;;;;;;;;8.10;99.90;;;;;;5071390;28;19924;-69
2023/01/30 10:12:31;;;;;;;;;;;8.10;99.90;;;;;;5067423;28;19925;-70
2023/01/30 10:15:07;;;;;;;;;;;8.20;99.90;;;;;;5068932;28;19947;-69
2023/01/30 10:17:40;;;;;;;;;;;8.00;99.90;;;;;;5068551;28;19924;-69
2023/01/30 10:20:25;;;;;;;;;;;8.10;99.90;;;;;;5070886;28;19924;-69
2023/01/30 10:22:58;;;;;;;;;;;8.20;99.90;;;;;;5072243;28;20294;-69
2023/01/30 10:25:29;;;;;;;;;;;8.20;99.90;;;;;;5084620;28;19970;-69
2023/01/30 10:27:58;;;;;;;;;;;8.20;99.90;;;;;;5065356;28;20157;-70
2023/01/30 10:30:25;;;;;;;;;;;8.30;99.90;;;;;;5069419;28;19970;-70
2023/01/30 10:33:01;;;;;;;;;;;8.40;99.90;;;;;;5068737;28;20391;-71
2023/01/30 10:35:30;;;;;;;;;;;8.40;99.90;;;;;;5064043;28;19925;-69
2023/01/30 10:38:05;;;;;;;;;;;8.40;99.90;;;;;;5069446;28;19924;-68
2023/01/30 10:40:36;;;;;;;;;;;8.40;99.90;;;;;;5083424;28;19971;-69
2023/01/30 10:43:04;;;;;;;;;;;8.50;99.90;;;;;;5072200;28;19947;-70
2023/01/30 10:45:34;;;;;;;;;;;8.50;99.90;;;;;;5069752;28;19929;-70
2023/01/30 10:48:17;;;;;;;;;;;8.50;99.90;;;;;;5068790;28;20019;-69
2023/01/30 10:50:47;;;;;;;;;;;8.50;99.90;;;;;;5071158;28;19935;-70
2023/01/30 10:53:17;;;;;;;;;;;8.40;99.90;;;;;;5068792;28;19928;-69
2023/01/30 10:55:46;;;;;;;;;;;8.30;99.90;;;;;;5066081;28;19928;-69
2023/01/30 10:58:17;;;;;;;;;;;8.30;99.90;;;;;;5069954;28;19925;-70
2023/01/30 11:00:48;;;;;;;;;;;8.40;99.90;;;;;;5070741;28;19931;-70
2023/01/30 11:03:24;;;;;;;;;;;8.50;99.90;;;;;;5070714;28;20298;-69
2023/01/30 11:05:51;;;;;;;;;;;8.50;99.90;;;;;;5071407;28;20421;-70
2023/01/30 11:08:22;;;;;;;;;;;8.50;99.90;;;;;;5069496;28;19928;-70
2023/01/30 11:10:52;;;;;;;;;;;8.40;99.90;;;;;;5060370;28;20225;-69
2023/01/30 11:13:20;;;;;;;;;;;8.40;99.90;;;;;;5071405;28;21128;-70
2023/01/30 11:15:48;;;;;;;;;;;8.40;99.90;;;;;;5082332;28;20366;-69
2023/01/30 11:18:16;;;;;;;;;;;8.40;99.90;;;;;;5071091;28;20011;-69
2023/01/30 11:20:44;;;;;;;;;;;8.40;99.90;;;;;;5072029;28;20334;-70
2023/01/30 11:23:24;;;;;;;;;;;8.50;99.90;;;;;;5072396;28;20437;-69
2023/01/30 11:25:51;;;;;;;;;;;8.60;99.90;;;;;;5071711;28;19935;-69
2023/01/30 11:28:19;;;;;;;;;;;8.60;99.90;;;;;;5070849;28;20203;-70
2023/01/30 11:30:50;;;;;;;;;;;8.50;99.90;;;;;;5066737;28;20023;-70
2023/01/30 11:33:17;;;;;;;;;;;8.40;99.90;;;;;;5067665;28;19961;-70
2023/01/30 11:35:53;;;;;;;;;;;8.50;99.90;;;;;;5066027;28;20399;-70
2023/01/30 11:38:24;;;;;;;;;;;8.50;99.90;;;;;;5073224;28;19929;-70
2023/01/30 11:41:01;;;;;;;;;;;8.50;99.90;;;;;;5073790;28;19928;-70
2023/01/30 11:43:28;;;;;;;;;;;8.60;99.90;;;;;;5073710;28;19925;-70
2023/01/30 11:45:55;;;;;;;;;;;8.60;99.90;;;;;;5068518;28;19924;-72
2023/01/30 11:48:26;;;;;;;;;;;8.60;99.90;;;;;;5071830;28;19924;-72
2023/01/30 11:50:56;;;;;;;;;;;8.60;99.90;;;;;;5070586;28;19964;-71
2023/01/30 11:53:29;;;;;;;;;;;8.60;99.90;;;;;;5071714;28;19932;-71
2023/01/30 11:55:58;;;;;;;;;;;8.60;99.90;;;;;;5073104;28;19931;-71
2023/01/30 11:58:29;;;;;;;;;;;8.50;99.90;;;;;;5081495;28;20355;-71
2023/01/30 12:00:58;;;;;;;;;;;8.50;99.90;;;;;;5067934;28;20201;-72
2023/01/30 12:03:28;;;;;;;;;;;8.60;99.90;;;;;;5069776;28;19932;-72
2023/01/30 12:05:55;;;;;;;;;;;8.70;99.90;;;;;;5067788;28;20008;-72
2023/01/30 12:08:24;;;;;;;;;;;8.70;99.90;;;;;;5071707;28;20383;-71
2023/01/30 12:10:54;;;;;;;;;;;8.70;99.90;;;;;;5054230;28;19936;-70
2023/01/30 12:13:33;;;;;;;;;;;;;;;;;;;;;
2023/01/30 12:16:12;;;;;;;;;;;8.50;99.90;;;;;;5072883;28;19956;-71
2023/01/30 12:18:44;;;;;;;;;;;8.40;99.90;;;;;;5063595;28;20371;-72
2023/01/30 12:21:15;;;;;;;;;;;8.50;99.90;;;;;;5070194;28;20371;-71
2023/01/30 12:23:45;;;;;;;;;;;8.50;99.90;;;;;;5069595;28;19925;-72
2023/01/30 12:26:15;;;;;;;;;;;8.60;99.90;;;;;;5068847;28;20011;-70
2023/01/30 12:28:46;;;;;;;;;;;8.60;99.90;;;;;;5075534;28;20021;-71
2023/01/30 12:31:16;;;;;;;;;;;8.60;99.90;;;;;;5072639;28;19925;-71
2023/01/30 12:33:42;;;;;;;;;;;8.60;99.90;;;;;;5089644;28;19985;-71
2023/01/30 12:36:13;;;;;;;;;;;8.70;99.90;;;;;;5072710;28;19924;-71
2023/01/30 12:38:46;;;;;;;;;;;8.60;99.90;;;;;;5072627;28;19943;-71
2023/01/30 12:41:22;;;;;;;;;;;8.70;99.90;;;;;;5071048;28;19925;-71
2023/01/30 12:43:57;;;;;;;;;;;8.70;99.90;;;;;;5089451;28;19935;-71
2023/01/30 12:46:35;;;;;;;;;;;8.60;99.90;;;;;;5071388;28;20444;-71
2023/01/30 12:49:08;;;;;;;;;;;8.70;99.90;;;;;;5071874;28;20028;-71
2023/01/30 12:51:42;;;;;;;;;;;8.80;99.90;;;;;;5070739;28;19972;-71
2023/01/30 12:54:13;;;;;;;;;;;8.90;99.90;;;;;;5057652;28;20035;-72
2023/01/30 12:56:52;;;;;;;;;;;8.80;99.90;;;;;;5070346;28;19932;-70
2023/01/30 12:59:21;;;;;;;;;;;8.80;99.90;;;;;;5059402;28;19968;-72
2023/01/30 13:01:54;;;;;;;;;;;8.80;99.90;;;;;;5069388;28;20311;-72
2023/01/30 13:04:24;;;;;;;;;;;8.80;99.90;;;;;;5070110;28;19928;-71
2023/01/30 13:07:06;;;;;;;;;;;8.70;99.90;;;;;;5069815;28;20351;-71
2023/01/30 13:09:46;;;;;;;;;;;8.80;99.90;;;;;;5071808;28;20397;-72
2023/01/30 13:12:17;;;;;;;;;;;8.80;99.90;;;;;;5068926;28;19931;-71
2023/01/30 13:14:47;;;;;;;;;;;8.70;99.90;;;;;;5072659;28;20031;-71
2023/01/30 13:17:20;;;;;;;;;;;8.70;99.90;;;;;;5069319;28;19925;-72
2023/01/30 13:19:50;;;;;;;;;;;8.80;99.90;;;;;;5071182;28;19935;-71
2023/01/30 13:22:21;;;;;;;;;;;8.80;99.90;;;;;;5068883;28;20019;-70
2023/01/30 13:24:53;;;;;;;;;;;8.70;99.90;;;;;;5071736;28;19935;-69
2023/01/30 13:27:24;;;;;;;;;;;8.60;99.90;;;;;;5076294;28;20391;-71
2023/01/30 13:29:52;;;;;;;;;;;8.80;99.90;;;;;;5071640;28;19929;-72
2023/01/30 13:32:23;;;;;;;;;;;8.90;99.90;;;;;;5070022;28;19924;-72
2023/01/30 13:34:50;;;;;;;;;;;8.90;99.90;;;;;;5059997;28;20369;-71
2023/01/30 13:37:17;;;;;;;;;;;8.80;99.90;;;;;;5070325;28;19946;-71
2023/01/30 13:39:47;;;;;;;;;;;8.80;99.90;;;;;;5070597;28;20023;-71
2023/01/30 13:42:19;;;;;;;;;;;8.60;99.90;;;;;;5067987;28;19924;-71
2023/01/30 13:44:48;;;;;;;;;;;8.50;99.90;;;;;;5058504;28;20015;-71
2023/01/30 13:47:23;;;;;;;;;;;8.50;99.90;;;;;;5068146;28;19929;-73
2023/01/30 13:49:55;;;;;;;;;;;8.70;99.90;;;;;;5067544;28;19924;-73
2023/01/30 13:52:27;;;;;;;;;;;8.60;99.90;;;;;;5066864;28;19928;-74
2023/01/30 13:55:00;;;;;;;;;;;8.60;99.90;;;;;;5071280;28;20015;-74
2023/01/30 13:57:31;;;;;;;;;;;8.60;99.90;;;;;;5067683;28;20015;-73
2023/01/30 14:00:15;;;;;;;;;;;8.60;99.90;;;;;;5073260;28;19932;-72
2023/01/30 14:05:55;;;;;;;;;;;8.70;99.90;;;;;;5095834;27;19930;-72
2023/01/30 14:08:24;;;;;;;;;;;8.70;99.90;;;;;;5086615;28;19931;-72
2023/01/30 14:10:51;;;;;;;;;;;8.70;99.90;;;;;;5087587;28;19924;-72
2023/01/30 14:13:18;;;;;;;;;;;8.70;99.90;;;;;;5085096;28;19932;-72
2023/01/30 14:15:53;;;;;;;;;;;8.70;99.90;;;;;;5088473;28;19972;-72
2023/01/30 14:18:22;;;;;;;;;;;8.50;99.90;;;;;;5087553;28;19925;-72
2023/01/30 14:20:50;;;;;;;;;;;8.50;99.90;;;;;;5088019;28;20348;-72
2023/01/30 14:23:20;;;;;;;;;;;8.50;99.90;;;;;;5087492;28;19924;-73
2023/01/30 14:25:49;;;;;;;;;;;8.50;99.90;;;;;;5081930;28;20023;-70
2023/01/30 14:28:49;;;;;;;;;;;8.50;99.90;;;;;;5077258;28;20280;-72
2023/01/30 14:31:35;;;;;;;;;;;8.50;99.90;;;;;;5083164;28;19953;-71
2023/01/30 14:34:01;;;;;;;;;;;8.50;99.90;;;;;;5088087;28;20028;-71
2023/01/30 14:36:35;;;;;;;;;;;8.40;99.90;;;;;;5079643;28;19983;-71
2023/01/30 14:39:21;;;;;;;;;;;8.30;99.90;;;;;;5079086;28;20143;-71
2023/01/30 14:42:02;;;;;;;;;;;8.30;99.90;;;;;;5085713;28;20063;-71
2023/01/30 14:44:48;;;;;;;;;;;8.30;99.90;;;;;;5085512;28;19924;-71
2023/01/30 14:47:19;;;;;;;;;;;8.20;99.90;;;;;;5082252;28;20370;-70
2023/01/30 14:49:47;;;;;;;;;;;8.20;99.90;;;;;;5083724;28;19952;-71
2023/01/30 14:52:28;;;;;;;;;;;8.30;99.90;;;;;;5081710;28;20327;-70
2023/01/30 14:54:55;;;;;;;;;;;8.30;99.90;;;;;;5079370;28;19943;-73